createdAt,value
2023-04-17T00:02:45.097Z,99748.06
2023-04-17T00:06:47.964Z,99767.03
2023-04-17T00:11:00.655Z,99769.13
2023-04-17T00:15:10.747Z,99758.53
2023-04-17T00:19:13.635Z,99749.38
2023-04-17T00:23:16.563Z,99748.38
2023-04-17T00:27:20.754Z,99744.69
2023-04-17T00:31:25.017Z,99736.63
2023-04-17T00:35:27.708Z,99748.28
2023-04-17T00:39:30.894Z,99738.69
2023-04-17T00:43:34.940Z,99740.13
2023-04-17T00:47:37.827Z,99735.81
2023-04-17T00:51:40.805Z,99731.66
2023-04-17T00:55:44.421Z,99732.38
2023-04-17T00:59:49.078Z,99705.78
2023-04-17T01:03:52.225Z,99731.31
2023-04-17T01:07:55.333Z,99723.97
2023-04-17T01:12:19.736Z,99733.13
2023-04-17T01:16:24.036Z,99727.06
2023-04-17T01:20:31.118Z,99725.22
2023-04-17T01:24:35.522Z,99727.84
2023-04-17T01:28:38.404Z,99730.91
2023-04-17T01:32:41.553Z,99723.50
2023-04-17T01:36:44.273Z,99731.31
2023-04-17T01:40:49.009Z,99732.69
2023-04-17T01:44:51.929Z,99739.47
2023-04-17T01:48:55.205Z,99735.81
2023-04-17T01:52:58.020Z,99738.31
2023-04-17T01:57:02.837Z,99738.75
2023-04-17T02:01:06.238Z,99737.44
2023-04-17T02:05:09.305Z,99708.53
2023-04-17T02:09:12.307Z,99715.75
2023-04-17T02:13:16.991Z,99724.69
2023-04-17T02:17:19.844Z,99715.84
2023-04-17T02:21:22.809Z,99715.78
2023-04-17T02:25:25.552Z,99718.69
2023-04-17T02:29:29.816Z,99717.66
2023-04-17T02:33:32.614Z,99721.91
2023-04-17T02:37:35.458Z,99717.09
2023-04-17T02:41:38.180Z,99718.09
2023-04-17T02:45:42.589Z,99722.56
2023-04-17T02:49:45.265Z,99720.66
2023-04-17T02:53:49.158Z,99727.63
2023-04-17T02:57:51.664Z,99717.16
2023-04-17T03:01:59.856Z,99719.00
2023-04-17T03:06:02.964Z,99722.13
2023-04-17T03:10:06.430Z,99723.72
2023-04-17T03:14:09.085Z,99726.28
2023-04-17T03:18:13.653Z,99721.38
2023-04-17T03:22:16.514Z,99728.56
2023-04-17T03:26:19.519Z,99727.56
2023-04-17T03:30:22.649Z,99731.28
2023-04-17T03:34:28.389Z,99733.75
2023-04-17T03:38:31.497Z,99728.84
2023-04-17T03:42:34.163Z,99727.88
2023-04-17T03:46:37.072Z,99737.22
2023-04-17T03:50:41.312Z,99730.88
2023-04-17T03:54:44.009Z,99728.69
2023-04-17T03:58:47.597Z,99728.34
2023-04-17T04:02:50.770Z,99725.63
2023-04-17T04:06:57.987Z,99723.38
2023-04-17T04:11:01.415Z,99727.34
2023-04-17T04:15:04.497Z,99731.97
2023-04-17T04:19:07.140Z,99719.25
2023-04-17T04:23:11.270Z,99723.47
2023-04-17T04:27:18.142Z,99734.59
2023-04-17T04:31:21.093Z,99728.44
2023-04-17T04:35:25.953Z,99730.91
2023-04-17T04:39:30.380Z,99730.41
2023-04-17T04:43:34.027Z,99725.69
2023-04-17T04:47:37.314Z,99741.84
2023-04-17T04:51:40.662Z,99741.06
2023-04-17T04:55:44.923Z,99742.44
2023-04-17T04:59:47.612Z,99750.44
2023-04-17T05:03:50.487Z,99743.53
2023-04-17T05:07:53.562Z,99756.28
2023-04-17T05:11:57.970Z,99751.03
2023-04-17T05:16:01.651Z,99755.53
2023-04-17T05:20:06.941Z,99757.72
2023-04-17T05:24:09.843Z,99752.44
2023-04-17T05:28:16.291Z,99760.69
2023-04-17T05:32:19.953Z,99765.63
2023-04-17T05:36:23.064Z,99767.84
2023-04-17T05:40:25.921Z,99754.84
2023-04-17T05:44:29.998Z,99764.81
2023-04-17T05:48:32.752Z,99762.97
2023-04-17T05:52:36.972Z,99766.59
2023-04-17T05:56:41.765Z,99763.56
2023-04-17T06:00:46.317Z,99766.78
2023-04-17T06:04:49.370Z,99760.84
2023-04-17T06:08:54.398Z,99765.84
2023-04-17T06:12:57.062Z,99768.53
2023-04-17T06:17:01.585Z,99774.94
2023-04-17T06:21:04.692Z,99765.22
2023-04-17T06:25:08.568Z,99779.31
2023-04-17T06:29:12.749Z,99773.03
2023-04-17T06:33:17.045Z,99747.91
2023-04-17T06:37:19.754Z,99780.56
2023-04-17T06:41:22.483Z,99768.16
2023-04-17T06:45:25.156Z,99771.03
2023-04-17T06:49:29.369Z,99784.09
2023-04-17T06:53:32.007Z,99776.53
2023-04-17T06:57:34.640Z,99787.69
2023-04-17T07:01:38.264Z,99782.19
2023-04-17T07:05:42.214Z,99785.84
2023-04-17T07:09:45.312Z,99784.09
2023-04-17T07:13:48.039Z,99785.00
2023-04-17T07:17:50.714Z,99789.78
2023-04-17T07:21:54.733Z,99792.03
2023-04-17T07:25:57.432Z,99797.75
2023-04-17T07:30:00.087Z,99787.88
2023-04-17T07:34:02.840Z,99770.69
2023-04-17T07:38:06.912Z,99794.03
2023-04-17T07:42:11.322Z,99793.22
2023-04-17T07:46:14.072Z,99807.75
2023-04-17T07:50:16.754Z,99801.59
2023-04-17T07:54:20.775Z,99767.16
2023-04-17T07:58:24.186Z,99797.47
2023-04-17T08:02:27.043Z,99774.69
2023-04-17T08:06:29.706Z,99803.44
2023-04-17T08:10:34.060Z,99803.09
2023-04-17T08:14:36.713Z,99811.72
2023-04-17T08:18:39.702Z,99805.25
2023-04-17T08:22:42.727Z,99816.72
2023-04-17T08:26:47.204Z,99815.47
2023-04-17T08:30:49.927Z,99817.53
2023-04-17T08:34:52.620Z,99790.38
2023-04-17T08:38:55.352Z,99825.72
2023-04-17T08:43:00.860Z,99796.06
2023-04-17T08:47:04.694Z,99820.88
2023-04-17T08:51:07.954Z,99821.69
2023-04-17T08:55:11.242Z,99821.03
2023-04-17T08:59:15.358Z,99816.66
2023-04-17T09:03:18.192Z,99815.97
2023-04-17T09:07:29.635Z,99800.38
2023-04-17T09:11:32.339Z,99815.09
2023-04-17T09:15:37.649Z,99810.88
2023-04-17T09:20:06.481Z,99818.97
2023-04-17T09:24:10.070Z,99822.59
2023-04-17T09:28:14.692Z,99818.47
2023-04-17T09:32:19.039Z,99819.16
2023-04-17T09:36:22.613Z,99830.22
2023-04-17T09:40:26.094Z,99826.78
2023-04-17T09:44:30.160Z,99828.91
2023-04-17T09:48:34.461Z,99827.19
2023-04-17T09:52:37.669Z,99833.47
2023-04-17T09:56:41.181Z,99826.16
2023-04-17T10:00:44.113Z,99838.13
2023-04-17T10:04:48.644Z,99838.50
2023-04-17T10:08:51.732Z,99833.16
2023-04-17T10:12:57.142Z,99834.44
2023-04-17T10:16:59.961Z,99833.69
2023-04-17T10:21:22.949Z,99830.66
2023-04-17T10:25:26.977Z,99829.59
2023-04-17T10:29:53.431Z,99829.56
2023-04-17T10:33:56.117Z,99835.38
2023-04-17T10:38:07.954Z,99818.69
2023-04-17T10:42:19.374Z,99830.13
2023-04-17T10:46:27.063Z,99828.44
2023-04-17T10:50:30.014Z,99813.31
2023-04-17T10:54:35.208Z,99824.22
2023-04-17T10:58:57.687Z,99820.31
2023-04-17T11:03:01.753Z,99814.63
2023-04-17T11:07:04.704Z,99814.38
2023-04-17T11:11:12.206Z,99818.28
2023-04-17T11:15:15.047Z,99809.13
2023-04-17T11:19:20.121Z,99805.22
2023-04-17T11:23:22.749Z,99802.09
2023-04-17T11:27:26.764Z,99808.28
2023-04-17T11:31:30.199Z,99805.91
2023-04-17T11:35:34.112Z,99801.47
2023-04-17T11:39:36.854Z,99800.50
2023-04-17T11:43:40.861Z,99800.53
2023-04-17T11:47:43.614Z,99806.25
2023-04-17T11:51:46.806Z,99798.03
2023-04-17T11:55:49.976Z,99798.22
2023-04-17T11:59:54.012Z,99794.34
2023-04-17T12:03:57.560Z,99794.91
2023-04-17T12:08:02.436Z,99792.34
2023-04-17T12:12:06.825Z,99778.22
2023-04-17T12:16:10.917Z,99795.69
2023-04-17T12:20:14.208Z,99786.31
2023-04-17T12:24:18.178Z,99795.13
2023-04-17T12:28:22.091Z,99799.53
2023-04-17T12:32:26.133Z,99797.56
2023-04-17T12:36:28.917Z,99799.84
2023-04-17T12:40:32.840Z,99791.91
2023-04-17T12:44:35.616Z,99799.19
2023-04-17T12:48:39.949Z,99791.78
2023-04-17T12:52:42.926Z,99797.72
2023-04-17T12:56:45.553Z,99799.75
2023-04-17T13:00:48.203Z,99798.03
2023-04-17T13:04:53.587Z,99799.69
2023-04-17T13:08:56.479Z,99791.38
2023-04-17T13:12:59.401Z,99792.91
2023-04-17T13:17:02.523Z,99795.78
2023-04-17T13:21:07.898Z,99797.59
2023-04-17T13:25:11.276Z,99772.22
2023-04-17T13:29:15.821Z,99787.97
2023-04-17T13:33:20.537Z,99773.50
2023-04-17T13:37:25.772Z,99774.91
2023-04-17T13:41:28.533Z,99779.63
2023-04-17T13:45:31.354Z,99770.94
2023-04-17T13:49:34.110Z,99767.56
2023-04-17T13:53:38.190Z,99761.72
2023-04-17T13:57:40.851Z,99757.13
2023-04-17T14:01:43.523Z,99760.56
2023-04-17T14:05:46.532Z,99761.47
2023-04-17T14:09:50.559Z,99758.06
2023-04-17T14:13:53.567Z,99761.28
2023-04-17T14:17:56.372Z,99759.38
2023-04-17T14:21:59.045Z,99762.47
2023-04-17T14:26:03.209Z,99765.22
2023-04-17T14:30:07.029Z,99756.09
2023-04-17T14:34:09.776Z,99770.72
2023-04-17T14:38:12.447Z,99778.16
2023-04-17T14:42:16.449Z,99767.53
2023-04-17T14:46:19.299Z,99763.34
2023-04-17T14:50:22.151Z,99760.31
2023-04-17T14:54:24.839Z,99770.69
2023-04-17T14:58:29.448Z,99770.47
2023-04-17T15:02:38.087Z,99756.97
2023-04-17T15:06:40.986Z,99764.44
2023-04-17T15:10:50.786Z,99761.53
2023-04-17T15:14:56.421Z,99761.63
2023-04-17T15:18:59.103Z,99754.06
2023-04-17T15:23:01.821Z,99744.38
2023-04-17T15:27:04.667Z,99745.41
2023-04-17T15:31:08.873Z,99753.81
2023-04-17T15:35:11.749Z,99754.16
2023-04-17T15:39:14.680Z,99749.56
2023-04-17T15:43:17.577Z,99748.28
2023-04-17T15:47:21.590Z,99753.41
2023-04-17T15:51:24.649Z,99745.19
2023-04-17T15:55:27.332Z,99763.63
2023-04-17T15:59:30.032Z,99753.66
2023-04-17T16:03:34.284Z,99756.84
2023-04-17T16:07:37.115Z,99756.91
2023-04-17T16:11:39.766Z,99751.03
2023-04-17T16:15:42.582Z,99757.75
2023-04-17T16:19:48.362Z,99748.41
2023-04-17T16:23:52.948Z,99756.78
2023-04-17T16:27:55.748Z,99749.94
2023-04-17T16:31:59.735Z,99751.31
2023-04-17T16:36:04.022Z,99753.78
2023-04-17T16:40:07.997Z,99761.50
2023-04-17T16:44:11.579Z,99763.44
2023-04-17T16:48:14.572Z,99756.28
2023-04-17T16:52:18.651Z,99757.34
2023-04-17T16:56:21.342Z,99756.31
2023-04-17T17:00:24.288Z,99736.69
2023-04-17T17:04:27.298Z,99758.63
2023-04-17T17:08:31.647Z,99752.66
2023-04-17T17:12:34.679Z,99758.28
2023-04-17T17:16:37.467Z,99760.38
2023-04-17T17:20:40.241Z,99758.88
2023-04-17T17:24:45.162Z,99759.47
2023-04-17T17:30:26.927Z,99767.88
2023-04-17T17:34:30.568Z,99763.38
2023-04-17T17:38:33.416Z,99768.75
2023-04-17T17:42:36.446Z,99763.97
2023-04-17T17:46:41.535Z,99775.88
2023-04-17T17:50:44.879Z,99777.69
2023-04-17T17:54:47.958Z,99777.53
2023-04-17T17:58:51.205Z,99777.03
2023-04-17T18:02:56.350Z,99772.84
2023-04-17T18:06:59.398Z,99769.19
2023-04-17T18:11:02.635Z,99784.13
2023-04-17T18:15:06.347Z,99774.47
2023-04-17T18:19:10.526Z,99788.97
2023-04-17T18:23:13.806Z,99776.34
2023-04-17T18:27:16.966Z,99780.47
2023-04-17T18:31:21.892Z,99788.38
2023-04-17T18:35:26.230Z,99774.69
2023-04-17T18:39:29.293Z,99786.56
2023-04-17T18:43:32.611Z,99792.06
2023-04-17T18:47:35.551Z,99789.31
2023-04-17T18:51:39.942Z,99794.47
2023-04-17T18:55:42.912Z,99792.41
2023-04-17T18:59:46.703Z,99799.31
2023-04-17T19:03:51.446Z,99796.66
2023-04-17T19:07:56.376Z,99801.72
2023-04-17T19:11:59.500Z,99792.28
2023-04-17T19:16:02.671Z,99794.47
2023-04-17T19:20:06.826Z,99797.25
2023-04-17T19:24:11.324Z,99793.78
2023-04-17T19:28:14.534Z,99795.63
2023-04-17T19:32:17.945Z,99788.00
2023-04-17T19:36:21.078Z,99786.53
2023-04-17T19:40:26.254Z,99783.66
2023-04-17T19:44:29.815Z,99790.00
2023-04-17T19:48:33.013Z,99788.50
2023-04-17T19:52:36.130Z,99773.31
2023-04-17T21:59:29.663Z,99753.09
2023-04-17T22:12:21.006Z,99731.38
2023-04-17T22:25:18.946Z,99739.88
2023-04-17T22:29:21.806Z,99744.91
2023-04-17T22:33:32.122Z,99730.91
2023-04-17T22:37:34.763Z,99746.53
2023-04-17T22:41:41.161Z,99746.41
2023-04-17T22:45:44.587Z,99747.81
2023-04-17T23:37:38.400Z,99741.38
2023-04-17T23:41:42.839Z,99719.25
2023-04-17T23:45:45.542Z,99736.00
2023-04-17T23:55:44.496Z,99732.16
